Time;durP1;ratioP1;P1;durP2;ratioP2;P2;SDS_P1;SDS_P2;PMS_P1;PMS_P2;Temp;Humidity;BMP_temperature;BMP_pressure;BME280_temperature;BME280_humidity;BME280_pressure;Samples;Min_cycle;Max_cycle;Signal;HPM_P1;HPM_P2
2023/04/05 00:01:25;;;;;;;2.78;1.45;;;;;;;13.50;34.70;96027.16;5042996;28;20517;-31
2023/04/05 00:03:53;;;;;;;4.20;1.60;;;;;;;13.57;35.54;96024.16;5033895;28;20021;-29
2023/04/05 00:06:21;;;;;;;4.70;1.88;;;;;;;13.32;36.55;96016.28;5033767;28;20477;-31
2023/04/05 00:08:48;;;;;;;5.32;1.85;;;;;;;13.50;37.17;96030.66;5040914;28;20025;-29
2023/04/05 00:11:15;;;;;;;2.97;1.50;;;;;;;13.27;37.83;96031.25;5033873;28;20021;-29
2023/04/05 00:13:41;;;;;;;4.30;1.48;;;;;;;13.38;38.05;96030.81;5034205;28;20397;-29
2023/04/05 00:16:07;;;;;;;3.92;1.70;;;;;;;13.09;38.79;96026.53;5033777;28;20024;-29
2023/04/05 00:18:33;;;;;;;3.13;1.67;;;;;;;12.95;39.52;96021.69;5033193;28;20033;-30
2023/04/05 00:20:59;;;;;;;5.15;1.65;;;;;;;13.05;39.67;96025.16;5036034;28;20481;-30
2023/04/05 00:23:25;;;;;;;1.92;1.35;;;;;;;13.18;39.68;96026.56;5043744;28;20377;-29
2023/04/05 00:25:51;;;;;;;6.15;1.75;;;;;;;13.10;39.88;96019.88;5041139;28;20065;-29
2023/04/05 00:28:16;;;;;;;5.22;1.40;;;;;;;13.33;39.26;96021.28;5033617;28;20102;-29
2023/04/05 00:30:42;;;;;;;2.75;1.40;;;;;;;12.93;40.28;96021.38;5033850;28;20018;-29
2023/04/05 00:33:07;;;;;;;5.13;1.88;;;;;;;13.03;40.69;96017.44;5033393;28;20025;-29
2023/04/05 00:35:33;;;;;;;4.88;1.55;;;;;;;13.16;40.72;96023.53;5033425;28;20022;-29
2023/04/05 00:37:58;;;;;;;4.25;1.75;;;;;;;12.86;41.52;96016.94;5033534;28;20377;-31
2023/04/05 00:40:24;;;;;;;3.10;1.35;;;;;;;12.90;42.30;96005.94;5029086;28;20392;-30
2023/04/05 00:42:49;;;;;;;4.95;1.73;;;;;;;12.98;41.84;96012.63;5044306;28;20377;-30
2023/04/05 00:45:15;;;;;;;3.35;1.30;;;;;;;13.23;41.49;96014.31;5040375;28;20029;-29
2023/04/05 00:47:41;;;;;;;6.18;2.00;;;;;;;13.08;42.26;96005.97;5041811;28;20054;-30
2023/04/05 00:50:09;;;;;;;4.40;1.77;;;;;;;13.21;41.51;96009.34;5037187;28;20022;-32
2023/04/05 00:52:36;;;;;;;7.40;1.70;;;;;;;13.19;42.22;96009.03;5037339;28;20018;-29
2023/04/05 00:55:04;;;;;;;4.50;1.92;;;;;;;13.20;41.78;95999.66;5034974;28;20075;-30
2023/04/05 00:57:31;;;;;;;5.75;2.72;;;;;;;13.05;42.41;95995.97;5037429;28;20481;-29
2023/04/05 01:00:00;;;;;;;5.55;1.40;;;;;;;13.08;42.43;95997.03;5042122;28;20099;-29
2023/04/05 01:02:32;;;;;;;4.32;1.70;;;;;;;13.16;41.59;95993.59;5038881;28;20087;-30
2023/04/05 01:05:08;;;;;;;2.90;1.70;;;;;;;13.07;42.13;95996.28;5037048;28;20063;-31
2023/04/05 01:07:45;;;;;;;2.90;1.65;;;;;;;13.23;41.66;95989.78;5044575;28;20079;-29
2023/04/05 01:10:15;;;;;;;6.28;1.48;;;;;;;13.00;42.09;95987.63;5044377;28;20392;-29
2023/04/05 01:12:40;;;;;;;2.13;1.52;;;;;;;12.87;42.31;95990.50;5036896;28;20029;-29
2023/04/05 01:15:07;;;;;;;3.35;1.48;;;;;;;13.04;42.07;95985.53;5037281;28;20026;-29
2023/04/05 01:17:41;;;;;;;2.95;1.60;;;;;;;13.15;41.97;95989.34;5036436;28;20034;-30
2023/04/05 01:20:09;;;;;;;2.65;1.60;;;;;;;12.91;42.60;95989.16;5030086;28;20462;-30
2023/04/05 01:22:50;;;;;;;3.58;1.75;;;;;;;13.06;42.07;95992.03;5036741;28;20025;-29
2023/04/05 01:25:43;;;;;;;3.17;1.35;;;;;;;13.05;42.08;95987.81;5036742;28;20013;-30
2023/04/05 01:28:57;;;;;;;3.75;1.52;;;;;;;13.32;41.54;95995.25;5046679;28;20541;-29
2023/04/05 01:32:01;;;;;;;4.38;1.75;;;;;;;12.90;42.69;95995.81;5034443;28;20025;-30
2023/04/05 01:34:40;;;;;;;3.92;1.48;;;;;;;12.91;42.53;95994.59;4960073;28;20049;-29
2023/04/05 01:37:10;;;;;;;2.85;1.58;;;;;;;13.12;41.93;95987.50;4957304;28;20035;-30
2023/04/05 01:39:36;;;;;;;4.97;1.77;;;;;;;12.91;42.56;96002.00;4956309;28;20642;-30
2023/04/05 01:42:03;;;;;;;2.72;1.55;;;;;;;13.06;42.54;95996.72;4962641;28;20085;-29
2023/04/05 01:44:28;;;;;;;2.83;1.50;;;;;;;13.36;42.04;95989.63;4956365;28;20059;-29
2023/04/05 01:46:54;;;;;;;3.95;1.77;;;;;;;13.13;42.36;95986.28;4953326;28;20078;-29
2023/04/05 01:49:20;;;;;;;4.20;1.40;;;;;;;12.86;42.72;95984.28;4955630;28;20206;-31
2023/04/05 01:51:45;;;;;;;3.30;1.40;;;;;;;12.86;42.23;95988.97;4963191;28;20042;-29
2023/04/05 01:54:11;;;;;;;2.17;1.23;;;;;;;12.87;42.67;95990.50;4962751;28;20511;-29
2023/04/05 01:56:36;;;;;;;4.20;1.42;;;;;;;12.93;42.04;95970.41;4958575;28;20042;-29
2023/04/05 01:59:02;;;;;;;4.63;1.95;;;;;;;12.88;42.01;95987.31;4959174;28;20036;-29
2023/04/05 02:01:27;;;;;;;3.13;1.52;;;;;;;12.92;42.75;95981.75;4955438;28;20051;-29
2023/04/05 02:03:53;;;;;;;3.13;1.48;;;;;;;13.00;42.49;95985.69;4955780;28;20093;-29
2023/04/05 02:06:18;;;;;;;2.85;1.35;;;;;;;13.05;42.21;95985.09;4971789;28;20035;-29
2023/04/05 02:08:44;;;;;;;2.53;1.38;;;;;;;13.13;41.52;95982.81;4975190;28;20136;-30
2023/04/05 02:11:10;;;;;;;3.35;1.58;;;;;;;13.03;41.93;95987.50;5034022;28;20030;-29
2023/04/05 02:13:35;;;;;;;2.88;1.40;;;;;;;12.94;42.23;95987.50;5043023;28;20112;-29
2023/04/05 02:16:00;;;;;;;8.45;1.25;;;;;;;12.81;42.27;95984.16;5038971;28;20107;-29
2023/04/05 02:18:30;;;;;;;2.70;1.40;;;;;;;12.96;42.19;95993.25;5039634;28;20489;-30
2023/04/05 02:21:06;;;;;;;2.53;1.23;;;;;;;12.69;43.11;95979.59;5042972;28;20029;-30
2023/04/05 02:23:33;;;;;;;3.13;1.70;;;;;;;12.96;42.00;95990.53;5041839;28;20475;-31
2023/04/05 02:25:59;;;;;;;5.05;1.60;;;;;;;13.02;41.67;95985.97;5036072;28;20508;-29
2023/04/05 02:28:25;;;;;;;5.63;1.40;;;;;;;13.00;41.26;95980.22;5035710;28;20049;-30
2023/04/05 02:30:51;;;;;;;5.45;2.05;;;;;;;12.66;42.31;95992.13;5035965;28;20025;-29
2023/04/05 02:33:16;;;;;;;4.03;2.17;;;;;;;12.86;41.73;95992.47;5035402;28;20021;-29
2023/04/05 02:35:43;;;;;;;3.00;1.30;;;;;;;12.86;41.58;95989.75;5035593;28;20071;-29
2023/04/05 02:38:08;;;;;;;2.25;1.27;;;;;;;12.80;41.65;95983.41;5036735;28;20032;-29
2023/04/05 02:40:34;;;;;;;2.83;1.50;;;;;;;12.93;41.12;95975.09;5041517;28;20021;-29
2023/04/05 02:43:00;;;;;;;3.42;1.70;;;;;;;12.86;41.48;95988.97;5035318;28;20029;-29
2023/04/05 02:45:26;;;;;;;4.90;1.83;;;;;;;12.76;41.78;95982.78;5042359;28;20053;-29
2023/04/05 02:47:53;;;;;;;4.38;1.48;;;;;;;12.87;41.22;95974.16;5035486;28;20049;-29
2023/04/05 02:50:19;;;;;;;3.70;1.50;;;;;;;12.74;41.95;95976.25;5035389;28;20495;-29
2023/04/05 02:52:48;;;;;;;2.70;1.50;;;;;;;12.93;41.72;95988.72;5034994;28;20071;-29
2023/04/05 02:55:13;;;;;;;3.25;1.40;;;;;;;12.94;41.53;95985.53;5035071;28;20481;-29
2023/04/05 02:57:39;;;;;;;3.05;1.40;;;;;;;13.00;41.33;95977.50;5032377;28;20018;-31
2023/04/05 03:00:07;;;;;;;3.05;1.63;;;;;;;12.81;41.59;95989.59;5041025;28;20472;-29
2023/04/05 03:02:32;;;;;;;3.75;1.55;;;;;;;12.89;41.71;95983.41;5043088;28;20049;-30
2023/04/05 03:05:01;;;;;;;3.53;1.48;;;;;;;12.85;41.45;95980.09;5042397;28;20369;-30
2023/04/05 03:07:26;;;;;;;4.47;1.90;;;;;;;12.68;41.61;95987.00;5042465;28;20028;-30
2023/04/05 03:09:52;;;;;;;2.22;1.45;;;;;;;12.84;41.26;95983.25;5029898;28;20033;-29
2023/04/05 03:12:18;;;;;;;6.60;2.10;;;;;;;12.88;41.53;95981.88;5038913;28;20021;-29
2023/04/05 03:14:44;;;;;;;3.63;1.52;;;;;;;12.66;41.77;95980.50;5034662;28;20358;-30
2023/04/05 03:17:10;;;;;;;2.75;1.85;;;;;;;13.03;41.09;95989.47;5034784;28;20040;-29
2023/04/05 03:19:36;;;;;;;3.00;1.80;;;;;;;12.84;41.57;95985.97;5040354;28;20025;-29
2023/04/05 03:22:01;;;;;;;2.30;1.40;;;;;;;12.74;41.64;95992.59;5041397;28;20136;-30
2023/04/05 03:24:27;;;;;;;4.97;1.60;;;;;;;12.70;41.66;95987.31;5041489;28;20018;-29
2023/04/05 03:26:52;;;;;;;3.22;1.60;;;;;;;13.00;41.16;95984.91;5041774;28;20033;-29
2023/04/05 03:29:18;;;;;;;3.15;1.45;;;;;;;12.99;40.93;95984.16;5038134;28;20395;-30
2023/04/05 03:31:44;;;;;;;1.48;1.38;;;;;;;12.81;41.14;95974.03;5036560;28;20366;-30
2023/04/05 03:34:09;;;;;;;2.53;1.45;;;;;;;12.74;41.25;95984.44;5040246;28;20072;-29
2023/04/05 03:36:41;;;;;;;3.92;1.70;;;;;;;12.94;41.08;95979.34;5034253;28;20029;-29
2023/04/05 03:39:09;;;;;;;2.72;1.27;;;;;;;12.83;41.39;95981.75;5034535;28;20112;-30
2023/04/05 03:41:35;;;;;;;3.78;2.15;;;;;;;12.83;40.95;95979.03;5037617;28;20017;-30
2023/04/05 03:44:01;;;;;;;2.80;1.80;;;;;;;12.45;41.68;95990.25;5036613;28;20087;-29
2023/04/05 03:46:26;;;;;;;3.63;1.52;;;;;;;12.62;41.27;95986.06;5034481;28;20025;-29
2023/04/05 03:48:51;;;;;;;6.35;1.90;;;;;;;12.65;41.31;95976.25;5034230;28;20165;-30
2023/04/05 03:51:17;;;;;;;3.50;1.42;;;;;;;12.72;41.01;95978.69;5034877;28;20029;-30
2023/04/05 03:53:43;;;;;;;3.00;1.52;;;;;;;12.71;40.76;95977.94;5040628;28;20100;-29
2023/04/05 03:56:09;;;;;;;3.22;1.65;;;;;;;12.68;40.99;95975.34;5040906;28;20029;-29
2023/04/05 03:58:35;;;;;;;3.78;1.50;;;;;;;12.63;41.14;95975.94;5048280;28;20461;-29
2023/04/05 04:01:01;;;;;;;4.78;1.42;;;;;;;12.86;40.39;95983.53;5041196;28;20057;-29
2023/04/05 04:03:27;;;;;;;2.53;1.60;;;;;;;12.49;41.25;95980.75;5034086;28;20465;-29
2023/04/05 04:05:53;;;;;;;3.15;1.63;;;;;;;12.56;40.71;95980.47;5033939;28;20025;-30
2023/04/05 04:08:19;;;;;;;4.57;1.77;;;;;;;12.72;40.24;95997.75;5033952;28;20009;-29
2023/04/05 04:10:45;;;;;;;3.83;1.58;;;;;;;12.77;40.15;95994.41;5034135;28;20492;-30
2023/04/05 04:13:10;;;;;;;11.90;2.13;;;;;;;12.76;40.53;95982.00;5032457;28;20107;-29
2023/04/05 04:15:36;;;;;;;4.93;2.00;;;;;;;12.53;40.60;95986.81;5034053;28;20026;-30
2023/04/05 04:18:01;;;;;;;3.15;1.30;;;;;;;12.63;40.62;95984.88;5042833;28;20021;-30
2023/04/05 04:20:27;;;;;;;2.78;1.50;;;;;;;12.81;39.72;95981.44;5043934;28;20117;-29
2023/04/05 04:22:52;;;;;;;3.72;1.45;;;;;;;12.63;40.16;95979.41;5034105;28;20028;-29
2023/04/05 04:25:19;;;;;;;3.65;1.55;;;;;;;12.69;40.00;95974.91;5033735;28;20365;-29
2023/04/05 04:27:45;;;;;;;5.00;1.60;;;;;;;12.66;39.91;95983.22;5033276;28;20053;-29
2023/04/05 04:30:14;;;;;;;1.27;1.17;;;;;;;12.68;39.85;95986.25;5033903;28;20029;-30
2023/04/05 04:35:23;;;;;;;3.50;1.30;;;;;;;12.72;40.12;95987.63;5026551;28;20032;-29
2023/04/05 04:37:59;;;;;;;2.30;1.70;;;;;;;12.59;39.64;95989.72;5033483;28;20036;-30
2023/04/05 04:40:39;;;;;;;2.88;1.45;;;;;;;12.67;39.63;95987.44;5033541;28;20029;-29
2023/04/05 04:43:08;;;;;;;3.17;1.40;;;;;;;12.62;39.57;95988.03;5048011;28;20025;-30
2023/04/05 04:45:36;;;;;;;2.80;1.35;;;;;;;12.66;39.75;95989.41;5037268;28;20024;-29
2023/04/05 04:48:03;;;;;;;1.88;1.30;;;;;;;12.75;39.85;95988.66;5035575;28;20445;-29
2023/04/05 04:50:30;;;;;;;2.67;1.50;;;;;;;12.59;39.89;95990.47;5033243;28;20479;-29
2023/04/05 04:52:57;;;;;;;3.78;2.35;;;;;;;12.70;39.71;95986.56;5032195;28;20017;-29
2023/04/05 04:55:24;;;;;;;6.65;3.80;;;;;;;12.66;39.58;95992.13;5033741;28;20033;-29
2023/04/05 04:57:52;;;;;;;5.35;3.20;;;;;;;12.88;38.87;95986.56;5033295;28;20025;-30
2023/04/05 05:00:17;;;;;;;3.95;2.35;;;;;;;12.66;39.27;95986.69;5040462;28;20021;-29
2023/04/05 05:02:43;;;;;;;3.85;2.20;;;;;;;12.71;39.36;95982.63;5033467;28;20485;-29
2023/04/05 05:05:10;;;;;;;7.38;2.65;;;;;;;12.65;39.27;95990.63;5032160;28;20465;-30
2023/04/05 05:07:36;;;;;;;7.05;1.98;;;;;;;12.57;39.55;95998.31;5034688;28;20079;-29
2023/04/05 05:10:03;;;;;;;2.88;1.55;;;;;;;12.52;39.38;95998.13;5039978;28;20109;-29
2023/04/05 05:12:30;;;;;;;3.03;1.40;;;;;;;12.70;39.30;95994.72;5040191;28;20108;-29
2023/04/05 05:14:56;;;;;;;4.90;1.42;;;;;;;12.83;38.85;96007.00;5033505;28;20051;-29
2023/04/05 05:17:22;;;;;;;5.60;2.00;;;;;;;12.70;39.29;95997.44;5033066;28;20473;-29
2023/04/05 05:19:47;;;;;;;6.60;1.85;;;;;;;12.64;38.92;96004.66;5040809;28;20032;-31
2023/04/05 05:22:13;;;;;;;3.47;1.75;;;;;;;12.66;38.95;96002.25;5033044;28;20021;-30
2023/04/05 05:24:38;;;;;;;5.93;1.98;;;;;;;12.66;39.09;96002.25;5039553;28;20052;-30
2023/04/05 05:27:04;;;;;;;3.22;1.70;;;;;;;12.64;39.39;95999.22;5033562;28;20057;-30
2023/04/05 05:29:30;;;;;;;6.10;1.65;;;;;;;12.89;38.58;96009.84;5033363;28;20049;-29
2023/04/05 05:31:56;;;;;;;3.88;1.90;;;;;;;12.89;38.39;96005.16;5040381;28;20466;-30
2023/04/05 05:34:21;;;;;;;2.83;1.50;;;;;;;12.57;39.54;96000.28;5042149;28;20032;-29
2023/04/05 05:36:47;;;;;;;3.75;1.73;;;;;;;12.72;38.76;96019.50;5043551;28;20039;-30
2023/04/05 05:39:12;;;;;;;2.95;1.48;;;;;;;12.79;39.10;96008.34;5036791;28;20053;-29
2023/04/05 05:41:37;;;;;;;2.90;1.42;;;;;;;12.88;38.68;96016.50;5041510;28;20025;-29
2023/04/05 05:44:03;;;;;;;4.90;1.63;;;;;;;12.75;39.52;96015.88;5038818;28;20025;-29
2023/04/05 05:46:29;;;;;;;5.18;1.60;;;;;;;12.79;38.90;96025.41;5029060;28;20105;-29
2023/04/05 05:48:54;;;;;;;2.35;1.30;;;;;;;12.84;39.08;96013.94;5036389;28;20343;-29
2023/04/05 05:51:20;;;;;;;4.30;1.35;;;;;;;12.86;38.76;96016.19;5036652;28;20026;-29
2023/04/05 05:53:46;;;;;;;2.03;1.63;;;;;;;12.80;39.02;96024.22;5043381;28;20025;-29
2023/04/05 05:56:11;;;;;;;4.72;1.33;;;;;;;12.73;39.43;96027.22;5043194;28;20502;-29
2023/04/05 05:58:38;;;;;;;7.93;1.60;;;;;;;12.90;39.03;96027.69;5038908;28;20566;-29
2023/04/05 06:01:05;;;;;;;2.78;1.38;;;;;;;12.68;39.46;96030.53;5048015;28;20041;-29
2023/04/05 06:03:31;;;;;;;3.75;1.63;;;;;;;12.85;39.58;96026.34;5043520;28;20026;-29
2023/04/05 06:05:58;;;;;;;5.28;1.60;;;;;;;12.70;39.63;96019.97;5043019;28;20021;-30
2023/04/05 06:08:24;;;;;;;1.77;1.33;;;;;;;12.79;39.33;96035.53;5035407;28;20025;-30
2023/04/05 06:10:52;;;;;;;3.88;1.65;;;;;;;12.66;39.42;96032.94;5042862;28;20025;-29
2023/04/05 06:13:18;;;;;;;3.88;1.65;;;;;;;12.62;39.70;96042.44;5036119;28;20032;-31
2023/04/05 06:15:44;;;;;;;2.50;1.70;;;;;;;12.67;40.11;96039.13;5036064;28;20017;-29
2023/04/05 06:18:09;;;;;;;5.05;1.73;;;;;;;12.90;39.54;96027.69;5039894;28;20031;-32
2023/04/05 06:20:39;;;;;;;3.05;1.50;;;;;;;12.91;39.83;96029.97;5038119;28;20025;-32
2023/04/05 06:23:08;;;;;;;3.08;1.70;;;;;;;12.74;39.80;96019.78;5045356;28;20017;-30
2023/04/05 06:25:33;;;;;;;3.95;1.45;;;;;;;12.81;39.68;96022.25;5046746;28;20056;-29
2023/04/05 06:27:59;;;;;;;3.33;1.77;;;;;;;13.08;39.23;96033.19;5034569;28;20056;-30
2023/04/05 06:30:25;;;;;;;2.00;1.30;;;;;;;13.01;39.61;96043.59;5035115;28;20033;-29
2023/04/05 06:32:53;;;;;;;4.30;1.70;;;;;;;13.01;39.60;96038.91;5035602;28;20192;-29
2023/04/05 06:35:23;;;;;;;5.70;1.75;;;;;;;12.95;40.15;96043.44;5028305;28;20048;-29
2023/04/05 06:37:49;;;;;;;5.40;1.80;;;;;;;12.61;40.75;96038.22;5035619;28;20021;-29
2023/04/05 06:40:15;;;;;;;5.10;1.65;;;;;;;12.80;40.38;96035.09;5035240;28;20076;-29
2023/04/05 06:42:41;;;;;;;5.13;1.60;;;;;;;12.73;40.63;96032.66;5042765;28;20105;-29
2023/04/05 06:45:07;;;;;;;4.28;1.65;;;;;;;12.87;40.26;96034.03;5041914;28;20057;-30
2023/04/05 06:47:39;;;;;;;3.28;1.70;;;;;;;13.07;39.73;96031.69;5042729;28;20020;-30
2023/04/05 06:50:07;;;;;;;3.17;1.60;;;;;;;12.79;40.67;96033.59;5040541;28;20028;-29
2023/04/05 06:52:33;;;;;;;4.45;1.75;;;;;;;13.05;39.98;96034.09;5034596;28;20124;-30
2023/04/05 06:54:59;;;;;;;2.97;1.70;;;;;;;13.12;39.57;96028.34;5035129;28;20029;-29
2023/04/05 06:57:24;;;;;;;3.17;1.50;;;;;;;13.05;39.94;96034.09;5034895;28;20092;-29
2023/04/05 06:59:52;;;;;;;5.43;1.48;;;;;;;13.19;39.64;96022.63;5039491;28;20049;-30
2023/04/05 07:02:18;;;;;;;4.90;1.60;;;;;;;13.15;39.63;96027.47;5036969;28;20049;-29
2023/04/05 07:04:43;;;;;;;12.60;2.10;;;;;;;13.02;40.07;96024.09;5043855;28;20021;-29
2023/04/05 07:07:09;;;;;;;11.43;2.10;;;;;;;12.89;40.72;96029.66;5045463;28;20465;-29
2023/04/05 07:09:35;;;;;;;13.82;1.90;;;;;;;13.05;40.27;96025.91;5042076;28;20048;-29
2023/04/05 07:12:03;;;;;;;2.65;1.48;;;;;;;13.07;40.28;96030.91;5038697;28;20021;-29
2023/04/05 07:14:29;;;;;;;4.93;1.70;;;;;;;12.84;40.99;96046.59;5037271;28;20488;-29
2023/04/05 07:16:55;;;;;;;6.03;1.83;;;;;;;13.01;40.18;96038.91;5041997;28;20103;-29
2023/04/05 07:19:20;;;;;;;4.03;1.70;;;;;;;12.93;40.55;96040.41;5034403;28;20108;-29
2023/04/05 07:21:46;;;;;;;2.78;1.50;;;;;;;13.19;40.43;96038.97;5034721;28;20026;-29
2023/04/05 07:24:11;;;;;;;5.00;1.73;;;;;;;13.21;40.21;96052.16;5041292;28;20067;-30
2023/04/05 07:26:36;;;;;;;4.57;2.20;;;;;;;12.97;40.94;96043.00;5033291;28;20021;-29
2023/04/05 07:29:03;;;;;;;3.90;2.20;;;;;;;13.14;40.62;96034.13;5034861;28;20068;-30
2023/04/05 07:31:30;;;;;;;3.50;1.58;;;;;;;13.05;40.04;96042.25;5038335;28;20061;-29
2023/04/05 07:33:57;;;;;;;3.35;1.73;;;;;;;13.25;39.88;96052.72;5036270;28;20025;-31
2023/04/05 07:36:22;;;;;;;5.30;1.70;;;;;;;13.23;40.26;96044.25;5041295;28;20092;-30
2023/04/05 07:38:48;;;;;;;5.78;1.55;;;;;;;13.08;40.64;96049.53;5041530;28;20129;-30
2023/04/05 07:41:15;;;;;;;4.35;1.88;;;;;;;13.24;40.73;96056.66;5036035;28;20029;-30
2023/04/05 07:43:41;;;;;;;3.30;1.50;;;;;;;13.28;40.62;96055.31;5039419;28;20469;-29
2023/04/05 07:46:06;;;;;;;3.47;1.27;;;;;;;13.36;40.32;96052.28;5034087;28;20021;-31
2023/04/05 07:48:32;;;;;;;3.03;1.48;;;;;;;13.32;40.46;96068.03;5034276;28;20164;-29
2023/04/05 07:51:05;;;;;;;2.30;1.17;;;;;;;13.47;39.88;96060.78;5034353;28;20022;-29
2023/04/05 07:53:31;;;;;;;2.85;1.50;;;;;;;13.46;40.44;96062.00;5052177;28;20036;-30
2023/04/05 07:55:57;;;;;;;2.38;1.48;;;;;;;13.42;40.41;96075.00;5038540;28;20025;-30
2023/04/05 07:58:24;;;;;;;5.03;1.77;;;;;;;13.52;40.25;96069.09;5040324;28;20380;-30
2023/04/05 08:00:52;;;;;;;4.45;1.80;;;;;;;13.41;40.47;96071.50;5033503;28;20021;-29
2023/04/05 08:03:17;;;;;;;2.00;1.35;;;;;;;13.55;39.54;96083.78;5040968;28;20429;-29
2023/04/05 08:05:43;;;;;;;4.30;1.60;;;;;;;13.57;39.66;96076.69;5041461;28;20013;-30
2023/04/05 08:08:10;;;;;;;2.53;1.40;;;;;;;13.54;39.62;96083.03;5034207;28;20018;-29
2023/04/05 08:10:39;;;;;;;2.75;1.38;;;;;;;13.54;39.56;96085.00;5034247;28;20025;-30
2023/04/05 08:13:05;;;;;;;3.30;1.70;;;;;;;13.46;39.97;96081.06;5033593;28;20024;-30
2023/04/05 08:15:34;;;;;;;3.58;1.73;;;;;;;13.67;39.53;96077.44;5033624;28;20025;-29
2023/04/05 08:18:00;;;;;;;2.15;1.42;;;;;;;13.49;39.81;96086.34;5035186;28;20480;-29
2023/04/05 08:20:25;;;;;;;4.60;1.77;;;;;;;13.60;39.30;96088.63;5040810;28;20032;-29
2023/04/05 08:22:51;;;;;;;3.35;1.55;;;;;;;13.64;39.74;96078.31;5042190;28;20033;-30
2023/04/05 08:25:16;;;;;;;4.35;1.77;;;;;;;13.66;39.78;96081.38;5043981;28;20060;-30
2023/04/05 08:27:41;;;;;;;2.38;1.55;;;;;;;13.77;39.42;96091.81;5036123;28;20025;-31
2023/04/05 08:30:07;;;;;;;3.00;1.95;;;;;;;13.68;39.72;96087.13;5041119;28;20021;-30
2023/04/05 08:32:34;;;;;;;4.38;1.70;;;;;;;13.72;39.73;96084.25;5033639;28;20025;-29
2023/04/05 08:34:59;;;;;;;4.05;1.83;;;;;;;13.81;39.20;96093.19;5033656;28;20075;-30
2023/04/05 08:37:25;;;;;;;3.25;1.92;;;;;;;13.79;39.45;96094.84;5033577;28;20025;-31
2023/04/05 08:39:50;;;;;;;4.30;2.08;;;;;;;13.91;39.60;96094.69;5033393;28;20029;-29
2023/04/05 08:42:18;;;;;;;2.97;1.73;;;;;;;13.95;38.71;96095.28;5041073;28;20025;-31
2023/04/05 08:44:45;;;;;;;2.17;1.45;;;;;;;14.03;39.50;96101.94;5038769;28;20028;-30
2023/04/05 08:47:14;;;;;;;2.40;1.60;;;;;;;13.93;39.28;96094.97;5035909;28;20018;-30
2023/04/05 08:49:43;;;;;;;2.83;1.48;;;;;;;13.95;39.05;96105.44;5039560;28;20064;-29
2023/04/05 08:52:08;;;;;;;4.78;1.60;;;;;;;14.14;39.17;96093.28;5040391;28;20377;-30
2023/04/05 08:54:34;;;;;;;4.65;1.40;;;;;;;14.09;39.03;96096.63;5031848;28;20037;-31
2023/04/05 08:57:04;;;;;;;3.00;1.45;;;;;;;14.08;39.14;96091.63;5033485;28;20037;-29
2023/04/05 08:59:33;;;;;;;2.15;1.73;;;;;;;14.14;39.20;96097.97;5034971;28;20033;-29
2023/04/05 09:02:00;;;;;;;2.40;1.55;;;;;;;14.15;39.18;96096.75;5038378;28;20047;-30
2023/04/05 09:04:30;;;;;;;2.50;1.23;;;;;;;14.24;38.98;96104.91;5033402;28;20468;-29
2023/04/05 09:06:57;;;;;;;3.25;1.67;;;;;;;14.17;38.77;96091.59;5043766;28;20040;-30
2023/04/05 09:09:24;;;;;;;3.13;1.38;;;;;;;14.27;38.99;96107.50;5038137;28;20017;-29
2023/04/05 09:11:50;;;;;;;2.60;1.60;;;;;;;14.43;38.81;96108.41;5037506;28;20040;-30
2023/04/05 09:14:16;;;;;;;2.05;1.30;;;;;;;14.45;38.29;96101.28;5044467;28;20458;-31
2023/04/05 09:16:42;;;;;;;1.73;1.13;;;;;;;14.51;38.24;96099.41;5036889;28;20060;-30
2023/04/05 09:19:09;;;;;;;2.75;1.30;;;;;;;14.42;38.43;96099.47;5035295;28;20048;-30
2023/04/05 09:22:06;;;;;;;2.33;1.20;;;;;;;14.71;38.36;96102.38;5036435;28;20056;-30
2023/04/05 09:24:42;;;;;;;3.80;1.70;;;;;;;14.83;38.31;96103.41;5032736;28;20021;-31
2023/04/05 09:27:09;;;;;;;2.08;1.35;;;;;;;14.76;38.58;96108.44;5044282;28;20017;-29
2023/04/05 09:29:35;;;;;;;2.05;1.50;;;;;;;14.96;38.29;96095.00;5042706;28;20017;-30
2023/04/05 09:32:02;;;;;;;2.25;1.42;;;;;;;14.68;38.22;96103.31;5038822;28;20226;-30
2023/04/05 09:34:30;;;;;;;2.25;1.33;;;;;;;14.70;38.36;96106.34;5042158;28;20021;-30
2023/04/05 09:36:55;;;;;;;4.70;1.90;;;;;;;14.51;38.41;96093.22;5044162;28;20560;-29
2023/04/05 09:39:27;;;;;;;3.42;1.70;;;;;;;14.71;38.22;96102.38;5043550;28;20120;-29
2023/04/05 09:42:14;;;;;;;3.00;1.67;;;;;;;14.68;38.53;96095.13;5043716;28;20020;-31
2023/04/05 09:45:04;;;;;;;4.60;1.50;;;;;;;14.55;38.23;96094.56;5031002;28;20267;-29
2023/04/05 09:47:32;;;;;;;2.90;1.60;;;;;;;14.81;37.85;96099.63;5035818;28;20108;-30
2023/04/05 09:49:59;;;;;;;2.00;1.45;;;;;;;14.77;37.81;96099.03;5036440;28;20096;-29
2023/04/05 09:52:33;;;;;;;2.63;1.30;;;;;;;14.91;37.96;96106.56;5036344;28;20048;-30
2023/04/05 09:55:00;;;;;;;2.58;1.40;;;;;;;14.82;37.56;96101.91;5042333;28;20396;-31
2023/04/05 09:57:28;;;;;;;2.63;1.65;;;;;;;14.86;37.32;96107.94;5038483;28;20053;-31
2023/04/05 09:59:54;;;;;;;2.60;1.35;;;;;;;14.72;37.38;96108.59;5041719;28;20036;-30
2023/04/05 10:02:23;;;;;;;2.28;1.42;;;;;;;14.79;37.28;96107.53;5043046;28;20048;-30
2023/04/05 10:04:50;;;;;;;2.70;1.55;;;;;;;14.91;37.17;96103.81;5028918;28;20061;-30
2023/04/05 10:07:18;;;;;;;3.50;1.45;;;;;;;14.97;37.16;96105.44;5036188;28;20025;-31
2023/04/05 10:09:46;;;;;;;3.85;1.63;;;;;;;15.13;37.58;96109.78;5036186;28;20029;-30
2023/04/05 10:12:20;;;;;;;3.60;1.50;;;;;;;14.94;37.75;96105.63;5035869;28;20013;-30
2023/04/05 10:14:46;;;;;;;5.70;2.40;;;;;;;15.03;37.27;96106.34;5036216;28;20116;-30
2023/04/05 10:17:19;;;;;;;2.13;1.80;;;;;;;15.05;37.82;96103.91;5035807;28;20108;-30
2023/04/05 10:20:13;;;;;;;4.40;4.00;;;;;;;15.14;37.07;96108.56;5035457;28;20548;-30
2023/04/05 10:22:51;;;;;;;4.13;2.97;;;;;;;15.23;37.90;96102.28;5033101;28;20030;-29
2023/04/05 10:25:19;;;;;;;4.65;2.60;;;;;;;15.26;37.74;96113.03;5035874;28;20021;-30
2023/04/05 10:27:49;;;;;;;3.63;2.08;;;;;;;15.07;37.66;96106.19;5035332;28;20112;-31
2023/04/05 10:30:15;;;;;;;3.40;2.25;;;;;;;15.46;38.08;96106.97;5028666;28;20044;-29
2023/04/05 10:33:04;;;;;;;3.95;2.15;;;;;;;15.46;37.58;96113.19;5035705;28;20420;-30
2023/04/05 10:35:32;;;;;;;2.90;1.73;;;;;;;15.50;37.64;96117.75;5029885;28;20111;-29
2023/04/05 10:38:01;;;;;;;2.80;1.70;;;;;;;15.20;37.17;96114.91;5035583;28;20033;-30
2023/04/05 10:40:31;;;;;;;3.00;1.48;;;;;;;15.24;36.69;96114.72;5035560;28;20021;-30
2023/04/05 10:42:57;;;;;;;2.92;1.60;;;;;;;15.11;36.81;96114.94;5049497;28;20035;-31
2023/04/05 10:45:24;;;;;;;4.72;1.80;;;;;;;15.20;37.19;96123.09;5037907;28;20022;-29
2023/04/05 10:48:04;;;;;;;2.70;1.58;;;;;;;15.07;37.05;96112.41;5046518;28;20515;-30
2023/04/05 10:50:31;;;;;;;4.72;1.70;;;;;;;15.04;37.80;96118.03;5042325;28;20037;-30
2023/04/05 10:52:58;;;;;;;4.97;2.35;;;;;;;15.21;37.02;96113.66;5040992;28;20052;-30
2023/04/05 10:55:24;;;;;;;4.22;2.30;;;;;;;15.21;37.22;96119.13;5035297;28;20041;-29
2023/04/05 10:57:50;;;;;;;4.93;2.20;;;;;;;14.94;37.63;96116.56;5035278;28;20034;-31
2023/04/05 11:00:17;;;;;;;6.60;2.50;;;;;;;15.06;36.85;96112.84;5031034;28;20044;-30
2023/04/05 11:02:43;;;;;;;4.35;2.92;;;;;;;15.00;37.29;96104.53;5033813;28;20049;-30
2023/04/05 11:05:32;;;;;;;8.80;2.83;;;;;;;15.07;37.02;96115.13;5040431;28;20021;-30
2023/04/05 11:08:06;;;;;;;10.20;8.18;;;;;;;15.31;37.35;96109.69;5031472;28;20095;-30
2023/04/05 11:10:36;;;;;;;9.50;6.75;;;;;;;15.34;37.30;96106.00;5037201;28;20112;-31
2023/04/05 11:13:03;;;;;;;8.98;5.95;;;;;;;15.27;37.45;96100.91;5041316;28;20079;-30
2023/04/05 11:15:33;;;;;;;8.85;5.38;;;;;;;15.28;37.48;96110.59;5041484;28;20022;-29
2023/04/05 11:18:09;;;;;;;14.10;8.05;;;;;;;15.21;37.32;96100.00;5041780;28;20049;-30
2023/04/05 11:20:45;;;;;;;11.35;6.72;;;;;;;15.50;37.45;96110.31;5034454;28;20018;-30
2023/04/05 11:23:13;;;;;;;8.57;5.30;;;;;;;15.41;37.42;96108.41;5032170;28;20027;-30
2023/04/05 11:25:44;;;;;;;9.30;5.60;;;;;;;15.55;37.66;96100.75;5037340;28;20390;-31
2023/04/05 11:28:23;;;;;;;9.88;6.60;;;;;;;15.69;37.46;96100.03;5027436;28;20017;-30
2023/04/05 11:30:57;;;;;;;8.15;5.03;;;;;;;15.59;37.10;96095.84;5041907;28;20017;-31
2023/04/05 11:33:41;;;;;;;6.80;4.10;;;;;;;15.51;37.22;96087.22;5032233;28;20032;-32
2023/04/05 11:36:06;;;;;;;6.47;3.45;;;;;;;15.58;37.23;96099.81;5036207;28;20024;-30
2023/04/05 11:38:32;;;;;;;4.63;3.20;;;;;;;15.64;37.13;96098.69;5039900;28;20587;-29
2023/04/05 11:41:19;;;;;;;4.13;2.67;;;;;;;15.59;37.24;96093.88;5034247;28;20430;-30